Time;durP1;ratioP1;P1;durP2;ratioP2;P2;SDS_P1;SDS_P2;PMS_P1;PMS_P2;Temp;Humidity;BMP_temperature;BMP_pressure;BME280_temperature;BME280_humidity;BME280_pressure;Samples;Min_cycle;Max_cycle;Signal;HPM_P1;HPM_P2
2023/01/30 00:00:21;;;;;;;24.33;12.53;;;-1.50;99.90;;;;;;6240541;23;20492;-86
2023/01/30 00:02:47;;;;;;;18.30;10.33;;;-1.60;99.90;;;;;;6237582;23;20152;-86
2023/01/30 00:05:12;;;;;;;21.70;12.07;;;-1.60;99.90;;;;;;6235329;23;20231;-87
2023/01/30 00:07:38;;;;;;;18.20;11.53;;;-1.70;99.90;;;;;;6238553;23;20491;-84
2023/01/30 00:10:04;;;;;;;21.07;11.27;;;-1.70;99.90;;;;;;6237500;23;20807;-84
2023/01/30 00:12:29;;;;;;;22.60;11.20;;;-1.70;99.90;;;;;;6239826;23;20164;-85
2023/01/30 00:14:55;;;;;;;22.93;10.20;;;-1.80;99.90;;;;;;6239315;23;20380;-85
2023/01/30 00:17:20;;;;;;;22.67;11.47;;;-1.80;99.90;;;;;;6237935;23;20205;-86
2023/01/30 00:19:46;;;;;;;18.97;10.23;;;-1.80;99.90;;;;;;6238296;23;20188;-84
2023/01/30 00:22:11;;;;;;;18.27;10.60;;;-1.90;99.90;;;;;;6240491;23;20187;-86
2023/01/30 00:24:37;;;;;;;19.47;12.87;;;-2.00;99.90;;;;;;6238663;23;20143;-84
2023/01/30 00:27:02;;;;;;;18.17;11.07;;;-2.00;99.90;;;;;;6238538;23;20259;-86
2023/01/30 00:29:28;;;;;;;24.80;11.83;;;-2.10;99.90;;;;;;6238288;23;20797;-83
2023/01/30 00:31:53;;;;;;;24.73;12.20;;;-2.10;99.90;;;;;;6238627;23;20188;-87
2023/01/30 00:34:19;;;;;;;21.87;10.47;;;-1.90;99.90;;;;;;6233029;23;20283;-84
2023/01/30 00:36:44;;;;;;;15.67;8.10;;;-1.80;99.90;;;;;;6249926;22;20214;-83
2023/01/30 00:39:10;;;;;;;19.97;11.03;;;-1.80;99.90;;;;;;6240670;23;20156;-85
2023/01/30 00:47:04;;;;;;;23.27;12.23;;;-1.70;99.90;;;;;;6251560;23;20183;-86
2023/01/30 00:49:29;;;;;;;22.13;10.13;;;-1.70;99.90;;;;;;6248903;23;20186;-83
2023/01/30 00:51:55;;;;;;;23.73;11.53;;;-1.70;99.90;;;;;;6251247;23;20152;-85
2023/01/30 00:54:20;;;;;;;25.93;12.60;;;-1.70;99.90;;;;;;6249309;23;20614;-84
2023/01/30 00:56:46;;;;;;;23.77;13.80;;;-1.80;99.90;;;;;;6250683;23;20172;-85
2023/01/30 00:59:11;;;;;;;24.63;10.40;;;-1.70;99.90;;;;;;6248265;23;20184;-86
2023/01/30 01:01:37;;;;;;;29.90;13.00;;;-1.60;99.90;;;;;;6245370;23;20614;-85
2023/01/30 01:04:03;;;;;;;23.03;12.47;;;-1.60;99.90;;;;;;6245164;23;20583;-84
2023/01/30 01:06:29;;;;;;;22.15;15.40;;;-1.60;99.90;;;;;;6241712;23;20642;-85
2023/01/30 01:08:55;;;;;;;22.47;12.73;;;-1.60;99.90;;;;;;6241267;23;20177;-83
2023/01/30 01:11:23;;;;;;;27.97;14.57;;;-1.50;99.90;;;;;;6247694;23;20141;-84
2023/01/30 01:13:57;;;;;;;23.00;12.10;;;-1.50;99.90;;;;;;6248398;23;20167;-84
2023/01/30 01:16:23;;;;;;;33.30;14.50;;;-1.40;99.90;;;;;;6246871;23;20909;-85
2023/01/30 01:18:49;;;;;;;27.23;13.25;;;-1.50;99.90;;;;;;6245389;23;20206;-83
2023/01/30 01:21:15;;;;;;;22.83;11.77;;;-1.50;99.90;;;;;;6248690;22;20172;-85
2023/01/30 01:23:41;;;;;;;25.00;13.77;;;-1.40;99.90;;;;;;6239801;23;20160;-84
2023/01/30 01:26:07;;;;;;;30.10;13.52;;;-1.30;99.90;;;;;;6240753;23;20396;-86
2023/01/30 01:28:32;;;;;;;30.53;15.43;;;-1.40;99.90;;;;;;6238438;23;20164;-84
2023/01/30 01:30:58;;;;;;;23.00;12.10;;;-1.30;99.90;;;;;;6238654;23;20168;-84
2023/01/30 01:33:27;;;;;;;21.53;10.10;;;-1.30;99.90;;;;;;6240230;23;20282;-86
2023/01/30 01:35:56;;;;;;;27.73;13.07;;;-1.20;99.90;;;;;;6237550;23;20181;-84
2023/01/30 01:38:22;;;;;;;27.45;14.05;;;-1.20;99.90;;;;;;6246028;23;20232;-85
2023/01/30 01:41:05;;;;;;;28.93;14.70;;;-1.10;99.90;;;;;;6244745;23;20184;-86
2023/01/30 01:43:57;;;;;;;20.00;10.70;;;-1.10;99.90;;;;;;6239522;23;20849;-85
2023/01/30 01:46:26;;;;;;;40.50;16.95;;;-1.00;99.90;;;;;;6239919;23;20630;-85
2023/01/30 01:48:55;;;;;;;23.70;12.13;;;-1.00;99.90;;;;;;6240702;23;20152;-86
2023/01/30 01:51:30;;;;;;;15.98;8.65;;;-1.00;99.90;;;;;;6241121;23;20156;-84
2023/01/30 01:54:01;;;;;;;19.85;11.02;;;-1.00;99.90;;;;;;6239313;23;20160;-84
2023/01/30 01:56:28;;;;;;;30.00;12.57;;;-1.00;99.90;;;;;;6239425;23;20172;-86
2023/01/30 01:59:04;;;;;;;23.40;11.55;;;-1.00;99.90;;;;;;6236373;22;20148;-84
2023/01/30 02:01:30;;;;;;;32.40;15.70;;;-1.00;99.90;;;;;;6248698;22;20144;-84
2023/01/30 02:04:01;;;;;;;29.55;15.77;;;-1.00;99.90;;;;;;6246790;22;20172;-85
2023/01/30 02:06:28;;;;;;;32.45;14.38;;;-1.00;99.90;;;;;;6235335;22;20216;-83
2023/01/30 02:08:58;;;;;;;20.15;11.32;;;-1.00;99.90;;;;;;6236323;22;20914;-85
2023/01/30 02:11:55;;;;;;;31.27;14.35;;;-1.00;99.90;;;;;;6232805;22;20157;-85
2023/01/30 02:14:21;;;;;;;21.35;11.48;;;-1.00;99.90;;;;;;6211187;22;20156;-84
2023/01/30 02:16:46;;;;;;;24.02;12.98;;;-0.90;99.90;;;;;;6234596;23;20172;-86
2023/01/30 02:19:41;;;;;;;32.97;14.33;;;-0.80;99.90;;;;;;6235417;23;20160;-84
2023/01/30 02:22:41;;;;;;;31.48;14.95;;;-0.80;99.90;;;;;;6235024;23;20172;-82
2023/01/30 02:25:35;;;;;;;26.20;11.85;;;-0.80;99.90;;;;;;6244568;23;20198;-86
2023/01/30 02:28:28;;;;;;;28.10;14.13;;;-0.70;99.90;;;;;;6240457;23;20193;-85
2023/01/30 02:31:12;;;;;;;25.67;13.35;;;-0.70;99.90;;;;;;6237819;23;20358;-84
2023/01/30 02:34:08;;;;;;;26.13;14.00;;;-0.70;99.90;;;;;;6238558;23;20141;-86
2023/01/30 02:37:06;;;;;;;29.45;12.23;;;-0.60;99.90;;;;;;6234156;23;20280;-85
2023/01/30 02:39:55;;;;;;;23.35;13.48;;;-0.60;99.90;;;;;;6237683;22;20219;-84
2023/01/30 02:42:31;;;;;;;27.77;14.55;;;-0.50;99.90;;;;;;6238090;22;20132;-84
2023/01/30 02:45:28;;;;;;;24.23;11.05;;;-0.50;99.90;;;;;;6233345;23;20240;-84
2023/01/30 02:48:02;;;;;;;22.10;12.18;;;-0.50;99.90;;;;;;6238257;23;20140;-85
2023/01/30 02:50:36;;;;;;;21.50;12.10;;;-0.50;99.90;;;;;;6238794;23;20152;-85
2023/01/30 02:53:04;;;;;;;31.00;14.88;;;-0.50;99.90;;;;;;6248903;22;20163;-85
2023/01/30 02:55:29;;;;;;;19.98;8.95;;;-0.50;99.90;;;;;;6240347;23;20424;-84
2023/01/30 02:57:55;;;;;;;18.77;9.83;;;-0.60;99.90;;;;;;6238962;23;20344;-85
2023/01/30 03:01:06;;;;;;;17.60;11.03;;;-0.60;99.90;;;;;;6236972;23;20219;-86
2023/01/30 03:03:37;;;;;;;19.83;10.52;;;-0.60;99.90;;;;;;6189152;23;20497;-85
2023/01/30 03:06:41;;;;;;;24.00;12.80;;;-0.60;99.90;;;;;;6239175;23;20206;-84
2023/01/30 03:09:13;;;;;;;19.15;10.65;;;-0.60;99.90;;;;;;6240034;23;20156;-86
2023/01/30 03:11:50;;;;;;;17.60;9.00;;;-0.60;99.90;;;;;;6239620;23;20144;-84
2023/01/30 03:14:24;;;;;;;16.85;8.98;;;-0.50;99.90;;;;;;6240149;23;20148;-85
2023/01/30 03:16:53;;;;;;;21.35;10.60;;;-0.50;99.90;;;;;;6238846;22;20184;-85
2023/01/30 03:19:19;;;;;;;20.20;10.15;;;-0.50;99.90;;;;;;6242117;22;20236;-85
2023/01/30 03:21:45;;;;;;;15.65;9.45;;;-0.50;99.90;;;;;;6240931;22;20779;-84
2023/01/30 03:24:12;;;;;;;21.63;12.85;;;-0.50;99.90;;;;;;6237315;23;20386;-84
2023/01/30 03:26:47;;;;;;;16.27;7.78;;;-0.40;99.90;;;;;;6239033;23;20176;-85
2023/01/30 03:29:13;;;;;;;21.70;12.02;;;-0.40;99.90;;;;;;6240129;22;20583;-86
2023/01/30 03:31:38;;;;;;;22.43;11.73;;;-0.30;99.90;;;;;;6235819;23;20149;-86
2023/01/30 03:34:04;;;;;;;15.57;10.00;;;-0.30;99.90;;;;;;6238136;23;20541;-84
2023/01/30 03:36:29;;;;;;;22.37;9.53;;;-0.20;99.90;;;;;;6236725;23;20232;-85
2023/01/30 03:38:55;;;;;;;17.77;9.97;;;-0.20;99.90;;;;;;6239003;23;20174;-86
2023/01/30 03:41:20;;;;;;;17.53;9.47;;;-0.20;99.90;;;;;;6239715;23;20176;-85
2023/01/30 03:43:46;;;;;;;12.30;8.13;;;-0.20;99.90;;;;;;6240764;23;20809;-84
2023/01/30 03:46:11;;;;;;;11.90;6.90;;;-0.20;99.90;;;;;;6239246;23;20169;-83
2023/01/30 03:48:37;;;;;;;19.50;8.93;;;-0.30;99.90;;;;;;6240755;23;20243;-84
2023/01/30 03:51:02;;;;;;;19.83;9.77;;;-0.40;99.90;;;;;;6240069;23;20543;-85
2023/01/30 03:53:28;;;;;;;24.97;10.90;;;-0.40;99.90;;;;;;6240427;23;20528;-83
2023/01/30 03:55:53;;;;;;;18.23;9.87;;;-0.30;99.90;;;;;;6238830;23;20180;-83
2023/01/30 03:58:19;;;;;;;19.30;10.90;;;-0.30;99.90;;;;;;6240410;23;20157;-82
2023/01/30 04:00:44;;;;;;;24.30;11.80;;;-0.20;99.90;;;;;;6239902;23;20172;-82
2023/01/30 04:03:10;;;;;;;17.77;10.20;;;-0.20;99.90;;;;;;6240636;23;20145;-85
2023/01/30 04:05:35;;;;;;;23.93;10.93;;;-0.10;99.90;;;;;;6248978;23;20169;-84
2023/01/30 04:08:01;;;;;;;20.30;10.67;;;-0.10;99.90;;;;;;6246951;23;20157;-84
2023/01/30 04:10:26;;;;;;;19.87;11.47;;;0.00;99.90;;;;;;6235449;23;20227;-83
2023/01/30 04:12:52;;;;;;;16.53;9.90;;;0.00;99.90;;;;;;6240496;23;20224;-86
2023/01/30 04:15:18;;;;;;;20.43;11.30;;;0.10;99.90;;;;;;6238990;23;20274;-83
2023/01/30 04:17:43;;;;;;;21.17;10.83;;;0.10;99.90;;;;;;6242160;23;20171;-85
2023/01/30 04:20:10;;;;;;;27.70;12.17;;;0.10;99.90;;;;;;6240076;23;20183;-85
2023/01/30 04:22:35;;;;;;;19.00;11.20;;;0.10;99.90;;;;;;6242189;23;20152;-87
2023/01/30 04:25:02;;;;;;;24.20;10.90;;;0.00;99.90;;;;;;6240371;23;20633;-85
2023/01/30 04:27:27;;;;;;;17.20;10.10;;;0.00;99.90;;;;;;6241494;23;20153;-85
2023/01/30 04:29:53;;;;;;;18.13;9.90;;;0.00;99.90;;;;;;6242540;23;20187;-84
2023/01/30 04:32:19;;;;;;;16.83;11.20;;;0.00;99.90;;;;;;6240953;23;20148;-86
2023/01/30 04:34:44;;;;;;;18.10;10.40;;;0.10;99.90;;;;;;6240889;23;20313;-85
2023/01/30 04:37:11;;;;;;;19.87;11.43;;;0.20;99.90;;;;;;6239150;23;20176;-84
2023/01/30 04:39:36;;;;;;;17.35;9.90;;;0.40;99.90;;;;;;6238555;22;20986;-83
2023/01/30 04:42:02;;;;;;;16.67;10.30;;;0.50;99.90;;;;;;6237765;23;20148;-83
2023/01/30 04:44:28;;;;;;;21.27;11.53;;;0.40;99.90;;;;;;6239757;23;20163;-85
2023/01/30 04:46:53;;;;;;;16.90;10.73;;;0.50;99.90;;;;;;6238021;23;20200;-83
2023/01/30 04:49:19;;;;;;;18.07;9.87;;;0.50;99.90;;;;;;6242020;23;20899;-85
2023/01/30 04:51:44;;;;;;;17.93;9.70;;;0.40;99.90;;;;;;6240636;23;20149;-85
2023/01/30 04:54:10;;;;;;;15.10;8.90;;;0.40;99.90;;;;;;6242379;23;20145;-86
2023/01/30 04:56:35;;;;;;;18.33;9.13;;;0.30;99.90;;;;;;6241195;23;20801;-83
2023/01/30 04:59:01;;;;;;;15.67;9.50;;;0.30;99.90;;;;;;6240818;23;20697;-86
2023/01/30 05:01:35;;;;;;;16.10;9.50;;;0.30;99.90;;;;;;6240717;23;20196;-86
2023/01/30 05:04:01;;;;;;;15.82;9.23;;;0.40;99.90;;;;;;6238688;23;20141;-85
2023/01/30 05:06:27;;;;;;;17.13;7.65;;;0.40;99.90;;;;;;6238609;22;20179;-83
2023/01/30 05:08:54;;;;;;;17.70;10.53;;;0.40;99.90;;;;;;6241168;23;20212;-84
2023/01/30 05:11:21;;;;;;;14.75;8.05;;;0.40;99.90;;;;;;6241929;22;20403;-84
2023/01/30 05:13:47;;;;;;;16.58;8.60;;;0.40;99.90;;;;;;6240273;23;20889;-85
2023/01/30 05:16:13;;;;;;;11.53;7.57;;;0.40;99.90;;;;;;6240341;23;20307;-84
2023/01/30 05:18:39;;;;;;;15.93;7.72;;;0.40;99.90;;;;;;6242379;23;20702;-84
2023/01/30 05:21:27;;;;;;;13.43;8.27;;;0.40;99.90;;;;;;6249649;23;20172;-83
2023/01/30 05:23:54;;;;;;;11.27;7.55;;;0.40;99.90;;;;;;6240940;22;20199;-82
2023/01/30 05:26:20;;;;;;;12.88;7.57;;;0.40;99.90;;;;;;6240095;23;20177;-87
2023/01/30 05:28:54;;;;;;;8.95;6.15;;;0.40;99.90;;;;;;6239871;22;20149;-85
2023/01/30 05:31:20;;;;;;;13.43;6.72;;;0.40;99.90;;;;;;6242710;22;20530;-87
2023/01/30 05:33:48;;;;;;;8.38;5.70;;;0.40;99.90;;;;;;6239800;23;20168;-83
2023/01/30 05:36:16;;;;;;;11.35;5.90;;;0.40;99.90;;;;;;6237963;23;20195;-83
2023/01/30 05:38:42;;;;;;;11.25;6.07;;;0.50;99.90;;;;;;6240523;22;20177;-84
2023/01/30 05:41:09;;;;;;;6.85;4.53;;;0.50;99.90;;;;;;6242856;22;20172;-86
2023/01/30 05:43:35;;;;;;;15.30;5.93;;;0.50;99.90;;;;;;6236859;22;20974;-86
2023/01/30 05:46:02;;;;;;;9.77;6.50;;;0.60;99.90;;;;;;6235499;23;20264;-82
2023/01/30 05:48:28;;;;;;;8.98;5.47;;;0.60;99.90;;;;;;6234403;23;20911;-84
2023/01/30 05:50:55;;;;;;;10.23;5.50;;;0.70;99.90;;;;;;6243759;23;20144;-84
2023/01/30 05:53:22;;;;;;;8.35;4.30;;;0.70;99.90;;;;;;6253772;22;20435;-82
2023/01/30 05:55:55;;;;;;;11.27;5.93;;;0.70;99.90;;;;;;6247667;22;20386;-83
2023/01/30 05:58:21;;;;;;;9.80;5.60;;;0.70;99.90;;;;;;6241564;23;20164;-85
2023/01/30 06:00:47;;;;;;;5.47;4.57;;;0.70;99.90;;;;;;6242670;23;20176;-85
2023/01/30 06:03:12;;;;;;;9.70;5.37;;;0.80;99.90;;;;;;6239528;23;20149;-82
2023/01/30 06:05:38;;;;;;;9.27;5.37;;;0.80;99.90;;;;;;6239032;23;20218;-85
2023/01/30 06:08:03;;;;;;;10.30;4.90;;;0.80;99.90;;;;;;6245100;23;20174;-85
2023/01/30 06:10:29;;;;;;;8.83;5.10;;;0.90;99.90;;;;;;6242557;23;20160;-84
2023/01/30 06:12:54;;;;;;;8.93;4.13;;;0.90;99.90;;;;;;6243121;23;20172;-84
2023/01/30 06:15:20;;;;;;;8.97;5.20;;;0.90;99.90;;;;;;6241624;23;20247;-85
2023/01/30 06:17:45;;;;;;;12.10;5.80;;;0.90;99.90;;;;;;6247168;23;20176;-85
2023/01/30 06:20:11;;;;;;;11.23;5.97;;;0.90;99.90;;;;;;6241603;23;20293;-83
2023/01/30 06:22:37;;;;;;;13.23;6.20;;;0.90;99.90;;;;;;6244617;23;20171;-84
2023/01/30 06:25:03;;;;;;;9.10;5.10;;;0.90;99.90;;;;;;6243849;23;20387;-84
2023/01/30 06:27:29;;;;;;;8.95;4.72;;;1.00;99.90;;;;;;6244942;23;20153;-84
2023/01/30 06:29:54;;;;;;;11.77;5.83;;;0.90;99.90;;;;;;6244500;23;20156;-82
2023/01/30 06:32:19;;;;;;;10.00;5.30;;;0.90;99.90;;;;;;6243733;23;20171;-83
2023/01/30 06:34:45;;;;;;;12.67;6.70;;;0.90;99.90;;;;;;6247662;23;20175;-85
2023/01/30 06:37:10;;;;;;;8.77;5.27;;;0.80;99.90;;;;;;6237225;23;20176;-86
2023/01/30 06:39:36;;;;;;;13.70;6.10;;;0.80;99.90;;;;;;6246328;23;20183;-83
2023/01/30 06:42:01;;;;;;;12.70;6.80;;;0.80;99.90;;;;;;6245188;23;20175;-85
2023/01/30 06:44:27;;;;;;;13.90;5.93;;;0.90;99.90;;;;;;6242989;23;20156;-82
2023/01/30 06:46:52;;;;;;;9.43;5.40;;;0.90;99.90;;;;;;6242537;23;20198;-86
2023/01/30 06:49:18;;;;;;;12.80;6.40;;;0.90;99.90;;;;;;6240214;23;20221;-83
2023/01/30 06:51:43;;;;;;;11.13;5.83;;;0.90;99.90;;;;;;6237669;23;20183;-85
2023/01/30 06:54:09;;;;;;;12.03;6.20;;;1.00;99.90;;;;;;6241959;23;20149;-84
2023/01/30 06:56:34;;;;;;;11.77;5.50;;;1.00;99.90;;;;;;6241407;23;20177;-84
2023/01/30 06:59:00;;;;;;;8.93;5.50;;;0.90;99.90;;;;;;6236004;23;20159;-86
2023/01/30 07:01:25;;;;;;;9.70;5.23;;;1.00;99.90;;;;;;6238418;23;20622;-85
2023/01/30 07:03:51;;;;;;;6.63;4.40;;;1.00;99.90;;;;;;6237363;23;20148;-84
2023/01/30 07:06:16;;;;;;;10.13;5.20;;;1.00;99.90;;;;;;6239109;23;20191;-84
2023/01/30 07:08:43;;;;;;;10.80;4.87;;;1.00;99.90;;;;;;6231798;23;20144;-86
2023/01/30 07:11:09;;;;;;;9.45;5.75;;;1.00;99.90;;;;;;6237072;23;20867;-83
2023/01/30 07:13:34;;;;;;;8.65;4.63;;;1.00;99.90;;;;;;6239347;23;20149;-86
2023/01/30 07:16:00;;;;;;;10.07;5.10;;;1.00;99.90;;;;;;6236287;23;20180;-85
2023/01/30 07:18:26;;;;;;;6.27;3.87;;;1.00;99.90;;;;;;6237451;23;20343;-84
2023/01/30 07:20:51;;;;;;;10.33;4.60;;;1.00;99.90;;;;;;6236908;23;20991;-85
2023/01/30 07:23:17;;;;;;;7.70;3.30;;;1.00;99.90;;;;;;6234942;23;20163;-84
2023/01/30 07:25:42;;;;;;;8.47;5.00;;;1.10;99.90;;;;;;6237564;23;20959;-84
2023/01/30 07:28:09;;;;;;;11.73;5.20;;;1.10;99.90;;;;;;6238375;23;20697;-84
2023/01/30 07:30:34;;;;;;;6.40;3.63;;;1.10;99.90;;;;;;6238544;22;20551;-84
2023/01/30 07:33:02;;;;;;;8.60;5.00;;;1.10;99.90;;;;;;6235868;23;20283;-84
2023/01/30 07:35:31;;;;;;;6.55;4.18;;;1.10;99.90;;;;;;6236511;23;20751;-84
2023/01/30 07:37:57;;;;;;;8.68;3.50;;;1.10;99.90;;;;;;6237615;23;20942;-85
2023/01/30 07:40:23;;;;;;;5.03;3.63;;;1.10;99.90;;;;;;6249274;23;20177;-83
2023/01/30 07:42:55;;;;;;;10.90;5.35;;;1.10;99.90;;;;;;6240552;23;20203;-84
2023/01/30 07:45:21;;;;;;;10.30;4.97;;;1.10;99.90;;;;;;6235479;23;20172;-84
2023/01/30 07:47:46;;;;;;;7.57;4.73;;;1.20;99.90;;;;;;6237653;23;20727;-83
2023/01/30 07:50:12;;;;;;;6.60;3.90;;;1.20;99.90;;;;;;6247307;23;20297;-85
2023/01/30 07:52:37;;;;;;;7.20;4.43;;;1.20;99.90;;;;;;6242759;23;20206;-84
2023/01/30 07:55:03;;;;;;;9.17;4.50;;;1.20;99.90;;;;;;6240254;23;20187;-83
2023/01/30 07:57:29;;;;;;;6.77;3.30;;;1.20;99.90;;;;;;6239948;23;20388;-84
2023/01/30 07:59:54;;;;;;;6.70;4.80;;;1.20;99.90;;;;;;6240059;23;20237;-86
2023/01/30 08:02:20;;;;;;;9.20;5.37;;;1.20;99.90;;;;;;6235494;23;20952;-85
2023/01/30 08:04:45;;;;;;;11.63;5.63;;;1.20;99.90;;;;;;6238038;23;20145;-86
2023/01/30 08:07:11;;;;;;;6.60;4.70;;;1.30;99.90;;;;;;6240294;23;20175;-85
2023/01/30 08:09:36;;;;;;;9.80;4.73;;;1.30;99.90;;;;;;6238252;23;20795;-85
2023/01/30 08:12:02;;;;;;;7.30;4.73;;;1.30;99.90;;;;;;6237701;23;20145;-83
2023/01/30 08:14:28;;;;;;;8.50;4.67;;;1.30;99.90;;;;;;6235129;23;20156;-84
2023/01/30 08:16:55;;;;;;;9.80;4.35;;;1.30;99.90;;;;;;6235162;22;20173;-83
2023/01/30 08:19:21;;;;;;;6.57;4.07;;;1.40;99.90;;;;;;6236128;23;20148;-84
2023/01/30 08:21:46;;;;;;;5.87;3.47;;;1.50;99.90;;;;;;6235227;23;20214;-84
2023/01/30 08:24:12;;;;;;;5.60;3.67;;;1.50;99.90;;;;;;6236065;23;20491;-84
2023/01/30 08:26:37;;;;;;;6.33;4.23;;;1.60;99.90;;;;;;6234653;23;20172;-85
2023/01/30 08:29:03;;;;;;;4.47;3.83;;;1.60;99.90;;;;;;6237341;23;20136;-85
2023/01/30 08:31:28;;;;;;;5.13;3.17;;;1.70;99.90;;;;;;6236581;22;20156;-84
2023/01/30 08:33:54;;;;;;;5.83;3.33;;;1.70;99.90;;;;;;6236359;23;20176;-84
2023/01/30 08:36:19;;;;;;;3.10;2.23;;;1.80;99.90;;;;;;6236516;23;20176;-84
2023/01/30 08:38:45;;;;;;;5.77;3.70;;;1.90;99.90;;;;;;6239057;23;20299;-85
2023/01/30 08:41:11;;;;;;;4.57;2.80;;;1.90;99.90;;;;;;6240399;22;20214;-84
2023/01/30 08:43:36;;;;;;;3.67;3.17;;;1.90;99.90;;;;;;6236029;23;20152;-86
2023/01/30 08:46:02;;;;;;;3.90;2.90;;;1.90;99.90;;;;;;6232062;23;20176;-82
2023/01/30 08:48:28;;;;;;;3.53;3.03;;;1.90;99.90;;;;;;6239238;23;20156;-84
2023/01/30 08:50:54;;;;;;;5.30;3.17;;;1.90;99.90;;;;;;6243925;22;20371;-84
2023/01/30 08:53:20;;;;;;;4.25;3.00;;;2.00;99.90;;;;;;6241987;23;20160;-85
2023/01/30 08:55:50;;;;;;;4.40;2.28;;;2.00;99.90;;;;;;6241469;23;20176;-84
2023/01/30 08:58:16;;;;;;;4.75;2.95;;;2.00;99.90;;;;;;6241575;23;20160;-84
2023/01/30 09:00:43;;;;;;;4.63;3.00;;;2.10;99.90;;;;;;6243154;22;20161;-84
2023/01/30 09:03:09;;;;;;;3.63;2.55;;;2.20;99.90;;;;;;6242713;23;20772;-84
2023/01/30 09:05:35;;;;;;;3.17;2.40;;;2.30;99.90;;;;;;6249343;22;20165;-84
2023/01/30 09:08:01;;;;;;;3.80;3.07;;;2.30;99.90;;;;;;6243802;23;20222;-84
2023/01/30 09:10:27;;;;;;;3.47;2.17;;;2.30;99.90;;;;;;6245697;22;20164;-83
2023/01/30 09:12:52;;;;;;;3.90;2.57;;;2.30;99.90;;;;;;6242010;23;20157;-84
2023/01/30 09:15:18;;;;;;;3.93;3.53;;;2.40;99.90;;;;;;6241009;23;20270;-83
2023/01/30 09:17:43;;;;;;;3.20;2.47;;;2.40;99.90;;;;;;6241445;23;20168;-85
2023/01/30 09:20:10;;;;;;;2.90;2.30;;;2.50;99.90;;;;;;6240886;23;20179;-84
2023/01/30 09:22:36;;;;;;;4.65;4.18;;;2.60;99.90;;;;;;6243091;22;20228;-84
2023/01/30 09:25:03;;;;;;;4.05;2.45;;;2.70;99.90;;;;;;6240566;23;20540;-84
2023/01/30 09:27:29;;;;;;;4.88;2.60;;;2.70;99.90;;;;;;6240596;23;20153;-85
2023/01/30 09:29:55;;;;;;;3.10;2.60;;;2.60;99.90;;;;;;6246121;23;20612;-83
2023/01/30 09:32:20;;;;;;;4.53;2.00;;;2.70;99.90;;;;;;6241024;23;20168;-84
2023/01/30 09:34:46;;;;;;;4.43;3.00;;;2.70;99.90;;;;;;6241270;22;20744;-85
2023/01/30 09:37:12;;;;;;;1.97;1.50;;;2.70;99.90;;;;;;6240930;23;20399;-83
2023/01/30 09:39:37;;;;;;;4.90;2.57;;;2.70;99.90;;;;;;6239373;23;20691;-82
2023/01/30 09:42:03;;;;;;;3.97;2.60;;;2.70;99.90;;;;;;6246442;23;20187;-83
2023/01/30 09:44:54;;;;;;;4.53;2.80;;;2.70;99.90;;;;;;6241266;23;20151;-84
2023/01/30 09:47:39;;;;;;;4.00;2.95;;;2.80;99.90;;;;;;6237516;22;20140;-84
2023/01/30 09:50:21;;;;;;;3.50;2.20;;;2.80;99.90;;;;;;6237383;22;20140;-84
2023/01/30 09:53:10;;;;;;;2.67;1.90;;;2.80;99.90;;;;;;6239759;23;20705;-84
2023/01/30 09:55:40;;;;;;;5.03;2.40;;;2.90;99.90;;;;;;6233798;23;20173;-83
2023/01/30 09:58:17;;;;;;;2.30;2.10;;;2.90;99.90;;;;;;6235139;23;20152;-85
2023/01/30 10:00:45;;;;;;;2.85;2.50;;;2.90;99.90;;;;;;6238554;22;20167;-82
2023/01/30 10:03:13;;;;;;;3.05;2.00;;;3.00;99.90;;;;;;6238025;22;20168;-84
2023/01/30 10:05:43;;;;;;;3.50;1.90;;;2.90;99.90;;;;;;6236480;23;20197;-84
2023/01/30 10:08:47;;;;;;;3.55;2.40;;;3.00;99.90;;;;;;6235184;23;20184;-85
2023/01/30 10:11:20;;;;;;;3.22;2.60;;;2.90;99.90;;;;;;6234182;23;20160;-84
2023/01/30 10:14:03;;;;;;;3.33;2.20;;;3.00;99.90;;;;;;6234196;23;20140;-84
2023/01/30 10:17:04;;;;;;;3.78;2.25;;;3.00;99.90;;;;;;6230724;23;20184;-83
2023/01/30 10:19:57;;;;;;;6.03;2.70;;;3.00;99.90;;;;;;6244533;22;20162;-85
2023/01/30 10:22:22;;;;;;;5.68;2.33;;;3.20;99.90;;;;;;6239626;22;20159;-85
2023/01/30 10:25:21;;;;;;;3.00;1.60;;;3.10;99.90;;;;;;6238439;23;20180;-85
2023/01/30 10:27:52;;;;;;;3.75;2.17;;;3.20;99.90;;;;;;6226133;23;20157;-85
2023/01/30 10:30:19;;;;;;;3.97;3.33;;;3.10;99.90;;;;;;6237638;23;20140;-81
2023/01/30 10:32:54;;;;;;;3.60;2.17;;;3.20;99.90;;;;;;6236608;23;20152;-84
2023/01/30 10:35:23;;;;;;;3.83;2.78;;;3.20;99.90;;;;;;6244849;22;20183;-84
2023/01/30 10:38:01;;;;;;;2.17;1.98;;;3.10;99.90;;;;;;6241172;23;20164;-85
2023/01/30 10:40:32;;;;;;;3.65;1.65;;;3.20;99.90;;;;;;6240555;22;20171;-83
2023/01/30 10:43:18;;;;;;;3.20;2.50;;;3.20;99.90;;;;;;6237879;23;20168;-83
2023/01/30 10:45:58;;;;;;;2.90;1.90;;;3.20;99.90;;;;;;6235592;23;20219;-84
2023/01/30 10:48:57;;;;;;;3.90;2.63;;;3.10;99.90;;;;;;6236001;23;20198;-86
2023/01/30 10:51:58;;;;;;;3.92;1.88;;;3.20;99.90;;;;;;6240961;22;20164;-82
2023/01/30 10:54:33;;;;;;;2.50;1.45;;;3.10;99.90;;;;;;6240178;23;20148;-84
2023/01/30 10:57:02;;;;;;;5.03;2.75;;;3.10;99.90;;;;;;6241119;23;20259;-82
2023/01/30 10:59:51;;;;;;;2.80;2.13;;;3.20;99.90;;;;;;6244091;23;20217;-85
2023/01/30 11:02:34;;;;;;;4.15;1.65;;;3.10;99.90;;;;;;6244316;22;20153;-85
2023/01/30 11:05:09;;;;;;;3.58;1.80;;;3.20;99.90;;;;;;6243771;22;20160;-84
2023/01/30 11:07:35;;;;;;;5.05;2.40;;;3.20;99.90;;;;;;6244971;22;20187;-84
2023/01/30 11:10:00;;;;;;;3.50;2.17;;;3.30;99.90;;;;;;6244635;23;20163;-84
2023/01/30 11:12:26;;;;;;;1.60;1.50;;;3.30;99.90;;;;;;6242836;23;20255;-84
2023/01/30 11:15:04;;;;;;;4.60;2.23;;;3.30;99.90;;;;;;6241179;23;20210;-83
2023/01/30 11:17:44;;;;;;;2.90;1.85;;;3.30;99.90;;;;;;6242284;23;20498;-83
2023/01/30 11:20:18;;;;;;;3.83;2.25;;;3.40;99.90;;;;;;6244799;22;20160;-84
2023/01/30 11:23:22;;;;;;;4.10;1.60;;;3.50;99.90;;;;;;6249373;23;20155;-81
2023/01/30 11:25:53;;;;;;;3.08;1.83;;;3.50;99.90;;;;;;6248159;22;20200;-81
2023/01/30 11:28:19;;;;;;;3.08;2.42;;;3.60;99.90;;;;;;6244941;22;20192;-86
2023/01/30 11:30:57;;;;;;;6.50;1.70;;;3.40;99.90;;;;;;6245106;23;20159;-83
2023/01/30 11:33:31;;;;;;;4.57;2.47;;;3.40;99.90;;;;;;6244450;22;20432;-84
2023/01/30 11:36:03;;;;;;;3.15;2.40;;;3.40;99.90;;;;;;6251672;23;20227;-87
2023/01/30 11:38:31;;;;;;;2.33;1.98;;;3.40;99.90;;;;;;6248401;23;20148;-84
2023/01/30 11:41:03;;;;;;;2.75;2.15;;;3.40;99.90;;;;;;6248748;22;20372;-85
2023/01/30 11:43:29;;;;;;;3.88;2.58;;;3.40;99.90;;;;;;6242650;23;20148;-84
2023/01/30 11:45:54;;;;;;;3.33;1.80;;;3.30;99.90;;;;;;6244339;22;20164;-85
2023/01/30 11:48:26;;;;;;;3.43;1.87;;;3.30;99.90;;;;;;6246895;23;20382;-84
2023/01/30 11:50:57;;;;;;;4.90;3.40;;;3.30;99.90;;;;;;6243378;23;20195;-85
2023/01/30 11:53:45;;;;;;;2.53;1.90;;;3.30;99.90;;;;;;6244083;23;20159;-86
2023/01/30 11:56:22;;;;;;;3.28;2.55;;;3.40;99.90;;;;;;6241246;23;20183;-83
2023/01/30 11:58:59;;;;;;;3.17;1.95;;;3.40;99.90;;;;;;6243625;22;20151;-84
2023/01/30 12:01:30;;;;;;;3.58;2.35;;;3.40;99.90;;;;;;6240874;22;20160;-84
2023/01/30 12:03:57;;;;;;;3.40;1.92;;;3.40;99.90;;;;;;6239538;22;20662;-82
2023/01/30 12:06:30;;;;;;;1.85;1.63;;;3.40;99.90;;;;;;6237559;23;20502;-84
2023/01/30 12:08:56;;;;;;;2.00;1.42;;;3.30;99.90;;;;;;6236327;23;20156;-83
2023/01/30 12:11:44;;;;;;;2.38;1.77;;;3.40;99.90;;;;;;6236428;23;20247;-82
2023/01/30 12:14:24;;;;;;;2.05;1.85;;;3.50;99.90;;;;;;6235173;23;20148;-84
2023/01/30 12:17:20;;;;;;;3.10;1.95;;;3.30;99.90;;;;;;6236298;23;20188;-83
2023/01/30 12:20:00;;;;;;;2.20;1.85;;;3.30;99.90;;;;;;6238972;22;20934;-83
2023/01/30 12:22:45;;;;;;;2.78;1.88;;;3.50;99.90;;;;;;6240219;23;20219;-83
2023/01/30 12:25:19;;;;;;;2.22;2.03;;;3.40;99.90;;;;;;6236402;23;20172;-83
2023/01/30 12:28:10;;;;;;;3.17;2.03;;;3.40;99.90;;;;;;6239570;23;20132;-84
2023/01/30 12:30:58;;;;;;;2.83;1.50;;;3.40;99.90;;;;;;6237954;23;20141;-84
2023/01/30 12:33:29;;;;;;;3.92;2.78;;;3.30;99.90;;;;;;6217150;23;20240;-84
2023/01/30 12:36:07;;;;;;;2.38;2.00;;;3.30;99.90;;;;;;6236714;23;20218;-85
2023/01/30 12:38:56;;;;;;;3.42;2.35;;;3.10;99.90;;;;;;6240150;23;20657;-83
2023/01/30 12:41:41;;;;;;;5.10;2.40;;;3.10;99.90;;;;;;6237771;23;20251;-85
2023/01/30 12:44:25;;;;;;;4.00;2.00;;;3.10;99.90;;;;;;6237791;23;20149;-83
2023/01/30 12:47:16;;;;;;;2.42;2.22;;;3.10;99.90;;;;;;6238692;22;20168;-82
2023/01/30 12:50:00;;;;;;;2.83;1.77;;;3.10;99.90;;;;;;6233928;22;20546;-89
2023/01/30 12:52:43;;;;;;;4.20;2.67;;;3.00;99.90;;;;;;6233299;23;20544;-89
2023/01/30 12:55:21;;;;;;;3.85;2.65;;;3.10;99.90;;;;;;6259860;22;20144;-89
2023/01/30 12:57:58;;;;;;;6.60;3.00;;;3.10;99.90;;;;;;6239705;23;20141;-89
2023/01/30 13:00:32;;;;;;;2.35;1.92;;;3.10;99.90;;;;;;6252977;23;20172;-89
2023/01/30 13:03:16;;;;;;;4.80;2.90;;;3.00;99.90;;;;;;6248810;23;20132;-90
2023/01/30 13:06:02;;;;;;;5.00;3.08;;;3.00;99.90;;;;;;6236166;23;20145;-89
2023/01/30 13:08:45;;;;;;;6.63;3.10;;;3.00;99.90;;;;;;6242819;23;20878;-88